sensor_id;sensor_type;location;lat;lon;timestamp;temperature;humidity
578;DHT22;275;48.492;9.214;2023-05-29T00:00:43;18.00;27.90
578;DHT22;275;48.492;9.214;2023-05-29T00:03:10;18.10;27.80
578;DHT22;275;48.492;9.214;2023-05-29T00:05:36;17.80;28.40
578;DHT22;275;48.492;9.214;2023-05-29T00:08:05;17.60;28.60
578;DHT22;275;48.492;9.214;2023-05-29T00:10:32;17.10;29.50
578;DHT22;275;48.492;9.214;2023-05-29T00:12:58;17.00;29.70
578;DHT22;275;48.492;9.214;2023-05-29T00:15:27;16.90;30.00
578;DHT22;275;48.492;9.214;2023-05-29T00:17:55;16.60;30.50
578;DHT22;275;48.492;9.214;2023-05-29T00:20:22;16.40;31.00
578;DHT22;275;48.492;9.214;2023-05-29T00:22:49;16.50;30.70
578;DHT22;275;48.492;9.214;2023-05-29T00:25:18;16.60;30.60
578;DHT22;275;48.492;9.214;2023-05-29T00:27:44;16.90;30.00
578;DHT22;275;48.492;9.214;2023-05-29T00:30:12;16.80;30.00
578;DHT22;275;48.492;9.214;2023-05-29T00:32:38;17.00;29.80
578;DHT22;275;48.492;9.214;2023-05-29T00:35:07;17.30;29.40
578;DHT22;275;48.492;9.214;2023-05-29T00:37:34;17.40;29.10
578;DHT22;275;48.492;9.214;2023-05-29T00:40:00;17.10;29.70
578;DHT22;275;48.492;9.214;2023-05-29T00:42:29;16.80;30.20
578;DHT22;275;48.492;9.214;2023-05-29T00:44:56;16.60;30.50
578;DHT22;275;48.492;9.214;2023-05-29T00:47:23;16.60;30.50
578;DHT22;275;48.492;9.214;2023-05-29T00:49:50;16.70;30.10
578;DHT22;275;48.492;9.214;2023-05-29T00:52:19;16.60;30.60
578;DHT22;275;48.492;9.214;2023-05-29T00:54:46;16.50;31.00
578;DHT22;275;48.492;9.214;2023-05-29T00:57:14;16.20;31.50
578;DHT22;275;48.492;9.214;2023-05-29T00:59:46;16.70;30.50
578;DHT22;275;48.492;9.214;2023-05-29T01:02:14;16.90;29.90
578;DHT22;275;48.492;9.214;2023-05-29T01:04:42;17.10;29.50
578;DHT22;275;48.492;9.214;2023-05-29T01:07:10;17.20;29.20
578;DHT22;275;48.492;9.214;2023-05-29T01:09:38;17.40;28.80
578;DHT22;275;48.492;9.214;2023-05-29T01:12:16;17.10;29.30
578;DHT22;275;48.492;9.214;2023-05-29T01:14:56;16.90;29.70
578;DHT22;275;48.492;9.214;2023-05-29T01:17:33;17.10;29.50
578;DHT22;275;48.492;9.214;2023-05-29T01:20:13;17.20;29.30
578;DHT22;275;48.492;9.214;2023-05-29T01:22:54;16.60;30.50
578;DHT22;275;48.492;9.214;2023-05-29T01:25:32;16.20;31.50
578;DHT22;275;48.492;9.214;2023-05-29T01:28:04;16.20;32.10
578;DHT22;275;48.492;9.214;2023-05-29T01:30:33;16.60;30.60
578;DHT22;275;48.492;9.214;2023-05-29T01:33:01;16.50;30.70
578;DHT22;275;48.492;9.214;2023-05-29T01:35:29;16.40;31.10
578;DHT22;275;48.492;9.214;2023-05-29T01:37:56;16.50;30.80
578;DHT22;275;48.492;9.214;2023-05-29T01:40:23;16.30;31.50
578;DHT22;275;48.492;9.214;2023-05-29T01:42:50;15.90;32.20
578;DHT22;275;48.492;9.214;2023-05-29T01:45:18;15.80;32.40
578;DHT22;275;48.492;9.214;2023-05-29T01:47:46;15.80;32.70
578;DHT22;275;48.492;9.214;2023-05-29T01:50:15;15.80;32.40
578;DHT22;275;48.492;9.214;2023-05-29T01:52:44;16.30;31.40
578;DHT22;275;48.492;9.214;2023-05-29T01:55:11;16.60;30.80
578;DHT22;275;48.492;9.214;2023-05-29T01:57:38;16.40;31.40
578;DHT22;275;48.492;9.214;2023-05-29T02:00:06;16.00;32.40
578;DHT22;275;48.492;9.214;2023-05-29T02:02:37;15.50;33.70
578;DHT22;275;48.492;9.214;2023-05-29T02:05:05;15.60;33.50
578;DHT22;275;48.492;9.214;2023-05-29T02:07:33;15.60;33.10
578;DHT22;275;48.492;9.214;2023-05-29T02:10:00;15.80;32.80
578;DHT22;275;48.492;9.214;2023-05-29T02:12:27;15.70;32.90
578;DHT22;275;48.492;9.214;2023-05-29T02:14:53;15.50;33.30
578;DHT22;275;48.492;9.214;2023-05-29T02:17:20;15.40;33.80
578;DHT22;275;48.492;9.214;2023-05-29T02:19:48;15.20;34.10
578;DHT22;275;48.492;9.214;2023-05-29T02:22:17;15.20;34.10
578;DHT22;275;48.492;9.214;2023-05-29T02:24:44;15.30;33.80
578;DHT22;275;48.492;9.214;2023-05-29T02:27:11;15.10;34.10
578;DHT22;275;48.492;9.214;2023-05-29T02:29:37;15.50;33.50
578;DHT22;275;48.492;9.214;2023-05-29T02:32:05;15.60;32.90
578;DHT22;275;48.492;9.214;2023-05-29T02:34:31;15.70;32.50
578;DHT22;275;48.492;9.214;2023-05-29T02:37:12;15.70;32.30
578;DHT22;275;48.492;9.214;2023-05-29T02:39:38;15.70;32.40
578;DHT22;275;48.492;9.214;2023-05-29T02:42:05;16.00;31.80
578;DHT22;275;48.492;9.214;2023-05-29T02:44:32;15.60;32.60
578;DHT22;275;48.492;9.214;2023-05-29T02:46:59;15.40;33.10
578;DHT22;275;48.492;9.214;2023-05-29T02:49:26;15.30;33.70
578;DHT22;275;48.492;9.214;2023-05-29T02:51:52;15.30;34.90
578;DHT22;275;48.492;9.214;2023-05-29T02:54:23;15.60;33.30
578;DHT22;275;48.492;9.214;2023-05-29T02:56:50;15.60;32.90
578;DHT22;275;48.492;9.214;2023-05-29T02:59:17;15.50;32.90
578;DHT22;275;48.492;9.214;2023-05-29T03:01:44;15.10;34.00
578;DHT22;275;48.492;9.214;2023-05-29T03:04:11;15.00;34.30
578;DHT22;275;48.492;9.214;2023-05-29T03:06:38;15.30;33.40
578;DHT22;275;48.492;9.214;2023-05-29T03:09:05;15.60;33.40
578;DHT22;275;48.492;9.214;2023-05-29T03:11:33;15.80;32.20
578;DHT22;275;48.492;9.214;2023-05-29T03:14:01;15.90;32.00
578;DHT22;275;48.492;9.214;2023-05-29T03:16:28;15.90;32.10
578;DHT22;275;48.492;9.214;2023-05-29T03:18:55;15.50;32.60
578;DHT22;275;48.492;9.214;2023-05-29T03:21:21;15.40;33.10
578;DHT22;275;48.492;9.214;2023-05-29T03:23:48;14.80;35.00
578;DHT22;275;48.492;9.214;2023-05-29T03:26:15;14.50;35.30
578;DHT22;275;48.492;9.214;2023-05-29T03:28:44;14.60;35.40
578;DHT22;275;48.492;9.214;2023-05-29T03:31:10;14.60;35.30
578;DHT22;275;48.492;9.214;2023-05-29T03:33:37;14.80;35.00
578;DHT22;275;48.492;9.214;2023-05-29T03:36:05;14.70;35.10
578;DHT22;275;48.492;9.214;2023-05-29T03:38:33;14.80;34.40
578;DHT22;275;48.492;9.214;2023-05-29T03:40:59;14.90;34.50
578;DHT22;275;48.492;9.214;2023-05-29T03:43:26;15.00;34.90
578;DHT22;275;48.492;9.214;2023-05-29T03:45:54;15.10;34.10
578;DHT22;275;48.492;9.214;2023-05-29T03:48:21;14.70;35.00
578;DHT22;275;48.492;9.214;2023-05-29T03:50:49;14.50;35.60
578;DHT22;275;48.492;9.214;2023-05-29T03:53:16;14.90;34.50
578;DHT22;275;48.492;9.214;2023-05-29T03:55:43;15.30;33.50
578;DHT22;275;48.492;9.214;2023-05-29T03:58:09;15.30;33.20
578;DHT22;275;48.492;9.214;2023-05-29T04:00:38;15.50;33.10
578;DHT22;275;48.492;9.214;2023-05-29T04:03:06;15.60;32.60
578;DHT22;275;48.492;9.214;2023-05-29T04:05:33;15.80;32.10
578;DHT22;275;48.492;9.214;2023-05-29T04:08:00;15.90;32.30
578;DHT22;275;48.492;9.214;2023-05-29T04:10:30;16.20;32.90
578;DHT22;275;48.492;9.214;2023-05-29T04:12:59;16.30;32.90
578;DHT22;275;48.492;9.214;2023-05-29T04:15:26;16.40;32.70
578;DHT22;275;48.492;9.214;2023-05-29T04:17:53;16.40;32.70
578;DHT22;275;48.492;9.214;2023-05-29T04:20:21;16.40;32.70
578;DHT22;275;48.492;9.214;2023-05-29T04:22:48;16.80;32.30
578;DHT22;275;48.492;9.214;2023-05-29T04:25:15;17.00;31.50
578;DHT22;275;48.492;9.214;2023-05-29T04:27:43;16.70;32.30
578;DHT22;275;48.492;9.214;2023-05-29T04:30:14;17.10;31.40
578;DHT22;275;48.492;9.214;2023-05-29T04:32:41;17.80;30.00
578;DHT22;275;48.492;9.214;2023-05-29T04:35:09;18.10;29.40
578;DHT22;275;48.492;9.214;2023-05-29T04:37:37;18.30;29.50
578;DHT22;275;48.492;9.214;2023-05-29T04:40:05;18.50;29.00
578;DHT22;275;48.492;9.214;2023-05-29T04:42:34;18.80;28.50
578;DHT22;275;48.492;9.214;2023-05-29T04:45:01;19.30;28.00
578;DHT22;275;48.492;9.214;2023-05-29T04:47:29;19.70;27.30
578;DHT22;275;48.492;9.214;2023-05-29T04:49:58;19.80;27.00
578;DHT22;275;48.492;9.214;2023-05-29T04:52:25;20.00;26.60
578;DHT22;275;48.492;9.214;2023-05-29T04:54:53;20.30;26.40
578;DHT22;275;48.492;9.214;2023-05-29T04:57:22;19.80;26.90
578;DHT22;275;48.492;9.214;2023-05-29T04:59:48;20.40;26.10
578;DHT22;275;48.492;9.214;2023-05-29T05:02:15;20.80;25.60
578;DHT22;275;48.492;9.214;2023-05-29T05:04:42;21.30;25.10
578;DHT22;275;48.492;9.214;2023-05-29T05:07:11;21.60;24.60
578;DHT22;275;48.492;9.214;2023-05-29T05:09:37;21.60;24.60
578;DHT22;275;48.492;9.214;2023-05-29T05:12:06;21.90;24.20
578;DHT22;275;48.492;9.214;2023-05-29T05:14:33;22.30;23.80
578;DHT22;275;48.492;9.214;2023-05-29T05:16:59;22.80;23.10
578;DHT22;275;48.492;9.214;2023-05-29T05:19:26;23.00;22.60
578;DHT22;275;48.492;9.214;2023-05-29T05:21:53;22.90;22.40
578;DHT22;275;48.492;9.214;2023-05-29T05:24:20;23.00;22.20
578;DHT22;275;48.492;9.214;2023-05-29T05:26:47;23.30;22.20
578;DHT22;275;48.492;9.214;2023-05-29T05:29:15;23.60;21.80
578;DHT22;275;48.492;9.214;2023-05-29T05:31:42;23.30;22.00
578;DHT22;275;48.492;9.214;2023-05-29T05:34:08;22.70;22.30
578;DHT22;275;48.492;9.214;2023-05-29T05:36:35;23.10;22.30
578;DHT22;275;48.492;9.214;2023-05-29T05:39:02;23.70;21.40
578;DHT22;275;48.492;9.214;2023-05-29T05:41:29;23.30;22.00
578;DHT22;275;48.492;9.214;2023-05-29T05:43:56;24.00;21.10
578;DHT22;275;48.492;9.214;2023-05-29T05:46:24;23.50;21.70
578;DHT22;275;48.492;9.214;2023-05-29T05:48:51;22.90;22.20
578;DHT22;275;48.492;9.214;2023-05-29T05:51:18;23.10;22.30
578;DHT22;275;48.492;9.214;2023-05-29T05:53:45;23.90;21.40
578;DHT22;275;48.492;9.214;2023-05-29T05:56:12;24.90;20.60
578;DHT22;275;48.492;9.214;2023-05-29T05:58:38;25.20;19.80
578;DHT22;275;48.492;9.214;2023-05-29T06:01:06;24.70;20.20
578;DHT22;275;48.492;9.214;2023-05-29T06:03:35;24.70;20.50
578;DHT22;275;48.492;9.214;2023-05-29T06:06:03;24.90;20.40
578;DHT22;275;48.492;9.214;2023-05-29T06:08:30;24.60;20.50
578;DHT22;275;48.492;9.214;2023-05-29T06:10:57;24.60;20.50
578;DHT22;275;48.492;9.214;2023-05-29T06:13:24;24.10;20.80
578;DHT22;275;48.492;9.214;2023-05-29T06:15:51;23.10;21.60
578;DHT22;275;48.492;9.214;2023-05-29T06:18:18;22.50;22.50
578;DHT22;275;48.492;9.214;2023-05-29T06:20:46;21.90;23.10
578;DHT22;275;48.492;9.214;2023-05-29T06:23:13;21.50;23.60
578;DHT22;275;48.492;9.214;2023-05-29T06:25:39;21.20;24.10
578;DHT22;275;48.492;9.214;2023-05-29T06:28:06;21.10;24.40
578;DHT22;275;48.492;9.214;2023-05-29T06:30:33;21.20;24.20
578;DHT22;275;48.492;9.214;2023-05-29T06:33:00;21.00;24.60
578;DHT22;275;48.492;9.214;2023-05-29T06:35:27;20.60;25.10
578;DHT22;275;48.492;9.214;2023-05-29T06:37:55;20.70;25.50
578;DHT22;275;48.492;9.214;2023-05-29T06:40:22;20.60;25.20
578;DHT22;275;48.492;9.214;2023-05-29T06:42:49;20.30;25.70
578;DHT22;275;48.492;9.214;2023-05-29T06:45:16;20.20;26.00
578;DHT22;275;48.492;9.214;2023-05-29T06:47:43;20.10;26.00
578;DHT22;275;48.492;9.214;2023-05-29T06:50:10;20.40;26.00
578;DHT22;275;48.492;9.214;2023-05-29T06:52:37;20.40;25.90
578;DHT22;275;48.492;9.214;2023-05-29T06:55:08;20.70;24.90
578;DHT22;275;48.492;9.214;2023-05-29T06:57:35;20.70;24.80
578;DHT22;275;48.492;9.214;2023-05-29T07:00:02;20.20;25.40
578;DHT22;275;48.492;9.214;2023-05-29T07:02:34;20.10;25.50
578;DHT22;275;48.492;9.214;2023-05-29T07:05:03;20.30;25.90
578;DHT22;275;48.492;9.214;2023-05-29T07:07:30;20.50;25.50
578;DHT22;275;48.492;9.214;2023-05-29T07:09:57;20.00;26.40
578;DHT22;275;48.492;9.214;2023-05-29T07:12:25;20.70;25.60
578;DHT22;275;48.492;9.214;2023-05-29T07:14:52;21.60;24.90
578;DHT22;275;48.492;9.214;2023-05-29T07:17:18;23.40;23.50
578;DHT22;275;48.492;9.214;2023-05-29T07:19:45;25.30;21.70
578;DHT22;275;48.492;9.214;2023-05-29T07:22:14;26.60;20.20
578;DHT22;275;48.492;9.214;2023-05-29T07:24:41;28.10;18.10
578;DHT22;275;48.492;9.214;2023-05-29T07:27:08;29.40;16.40
578;DHT22;275;48.492;9.214;2023-05-29T07:29:36;30.10;15.50
578;DHT22;275;48.492;9.214;2023-05-29T07:32:03;30.60;15.20
578;DHT22;275;48.492;9.214;2023-05-29T07:34:30;31.10;14.70
578;DHT22;275;48.492;9.214;2023-05-29T07:36:58;31.70;15.40
578;DHT22;275;48.492;9.214;2023-05-29T07:39:26;30.80;15.10
578;DHT22;275;48.492;9.214;2023-05-29T07:41:53;31.00;14.70
578;DHT22;275;48.492;9.214;2023-05-29T07:44:20;30.70;14.90
578;DHT22;275;48.492;9.214;2023-05-29T07:46:48;31.30;13.60
578;DHT22;275;48.492;9.214;2023-05-29T07:49:15;32.60;12.90
578;DHT22;275;48.492;9.214;2023-05-29T07:51:42;33.00;12.60
578;DHT22;275;48.492;9.214;2023-05-29T07:54:09;33.00;12.20
578;DHT22;275;48.492;9.214;2023-05-29T07:56:36;33.10;12.00
578;DHT22;275;48.492;9.214;2023-05-29T07:59:04;32.70;12.20
578;DHT22;275;48.492;9.214;2023-05-29T08:01:31;32.90;12.30
578;DHT22;275;48.492;9.214;2023-05-29T08:03:59;32.90;12.30
578;DHT22;275;48.492;9.214;2023-05-29T08:06:26;32.70;12.40
578;DHT22;275;48.492;9.214;2023-05-29T08:08:53;32.00;13.30
578;DHT22;275;48.492;9.214;2023-05-29T08:11:21;31.20;14.40
578;DHT22;275;48.492;9.214;2023-05-29T08:13:48;31.40;14.20
578;DHT22;275;48.492;9.214;2023-05-29T08:16:15;33.10;12.70
578;DHT22;275;48.492;9.214;2023-05-29T08:18:42;34.80;11.20
578;DHT22;275;48.492;9.214;2023-05-29T08:21:11;33.70;11.20
578;DHT22;275;48.492;9.214;2023-05-29T08:23:38;32.80;11.80
578;DHT22;275;48.492;9.214;2023-05-29T08:26:05;32.40;13.00
578;DHT22;275;48.492;9.214;2023-05-29T08:28:32;31.60;13.10
578;DHT22;275;48.492;9.214;2023-05-29T08:30:58;32.20;13.10
578;DHT22;275;48.492;9.214;2023-05-29T08:33:25;31.40;13.80
578;DHT22;275;48.492;9.214;2023-05-29T08:35:52;31.90;13.60
578;DHT22;275;48.492;9.214;2023-05-29T08:38:20;30.90;14.20
578;DHT22;275;48.492;9.214;2023-05-29T08:40:48;32.00;13.70
578;DHT22;275;48.492;9.214;2023-05-29T08:43:17;33.20;12.60
578;DHT22;275;48.492;9.214;2023-05-29T08:45:47;32.10;13.70
578;DHT22;275;48.492;9.214;2023-05-29T08:48:16;32.40;12.90
578;DHT22;275;48.492;9.214;2023-05-29T08:50:46;32.60;12.80
578;DHT22;275;48.492;9.214;2023-05-29T08:53:13;33.50;12.00
578;DHT22;275;48.492;9.214;2023-05-29T08:55:42;32.80;13.00
578;DHT22;275;48.492;9.214;2023-05-29T08:58:09;34.20;11.50
578;DHT22;275;48.492;9.214;2023-05-29T09:00:37;35.00;10.60
578;DHT22;275;48.492;9.214;2023-05-29T09:03:06;33.60;12.20
578;DHT22;275;48.492;9.214;2023-05-29T09:05:34;33.20;12.30
578;DHT22;275;48.492;9.214;2023-05-29T09:08:05;33.60;12.30
578;DHT22;275;48.492;9.214;2023-05-29T09:10:32;32.10;13.80
578;DHT22;275;48.492;9.214;2023-05-29T09:13:01;31.20;15.00
578;DHT22;275;48.492;9.214;2023-05-29T09:15:29;31.80;14.40
578;DHT22;275;48.492;9.214;2023-05-29T09:17:58;31.50;14.60
578;DHT22;275;48.492;9.214;2023-05-29T09:20:25;31.50;14.30
578;DHT22;275;48.492;9.214;2023-05-29T09:22:53;30.70;15.10
578;DHT22;275;48.492;9.214;2023-05-29T09:25:22;31.30;15.00
578;DHT22;275;48.492;9.214;2023-05-29T09:27:51;30.80;15.20
578;DHT22;275;48.492;9.214;2023-05-29T09:30:33;32.50;13.30
578;DHT22;275;48.492;9.214;2023-05-29T09:33:03;32.80;12.50
578;DHT22;275;48.492;9.214;2023-05-29T09:35:35;32.30;13.10
578;DHT22;275;48.492;9.214;2023-05-29T09:38:02;33.40;11.70
578;DHT22;275;48.492;9.214;2023-05-29T09:40:30;32.20;12.80
578;DHT22;275;48.492;9.214;2023-05-29T09:43:02;32.00;13.40
578;DHT22;275;48.492;9.214;2023-05-29T09:45:32;31.40;13.60
578;DHT22;275;48.492;9.214;2023-05-29T09:47:59;33.30;11.80
578;DHT22;275;48.492;9.214;2023-05-29T09:50:26;34.80;10.70
578;DHT22;275;48.492;9.214;2023-05-29T09:52:55;35.60;9.40
578;DHT22;275;48.492;9.214;2023-05-29T09:55:23;36.10;8.90
578;DHT22;275;48.492;9.214;2023-05-29T09:57:53;35.20;9.20
578;DHT22;275;48.492;9.214;2023-05-29T10:00:20;34.90;9.10
578;DHT22;275;48.492;9.214;2023-05-29T10:02:49;35.20;9.20
578;DHT22;275;48.492;9.214;2023-05-29T10:05:16;34.00;9.50
578;DHT22;275;48.492;9.214;2023-05-29T10:07:45;33.70;9.60
578;DHT22;275;48.492;9.214;2023-05-29T10:10:14;34.60;8.90
578;DHT22;275;48.492;9.214;2023-05-29T10:12:45;33.80;8.70
578;DHT22;275;48.492;9.214;2023-05-29T10:15:15;35.10;7.90
578;DHT22;275;48.492;9.214;2023-05-29T10:17:53;36.30;7.20
578;DHT22;275;48.492;9.214;2023-05-29T10:20:23;32.70;9.40
578;DHT22;275;48.492;9.214;2023-05-29T10:22:55;32.10;10.60
578;DHT22;275;48.492;9.214;2023-05-29T10:25:23;31.70;11.40
578;DHT22;275;48.492;9.214;2023-05-29T10:27:53;31.80;11.10
578;DHT22;275;48.492;9.214;2023-05-29T10:30:28;32.60;10.60
578;DHT22;275;48.492;9.214;2023-05-29T10:33:08;33.50;10.40
578;DHT22;275;48.492;9.214;2023-05-29T10:35:42;34.10;9.70
578;DHT22;275;48.492;9.214;2023-05-29T10:38:12;34.60;8.90
578;DHT22;275;48.492;9.214;2023-05-29T10:40:42;33.10;9.90
578;DHT22;275;48.492;9.214;2023-05-29T10:43:09;33.50;9.60
578;DHT22;275;48.492;9.214;2023-05-29T10:45:58;33.80;9.10
578;DHT22;275;48.492;9.214;2023-05-29T10:48:42;33.10;10.00
578;DHT22;275;48.492;9.214;2023-05-29T10:51:25;30.80;12.10
578;DHT22;275;48.492;9.214;2023-05-29T10:53:52;32.20;10.80
578;DHT22;275;48.492;9.214;2023-05-29T10:56:23;31.60;11.00
578;DHT22;275;48.492;9.214;2023-05-29T10:58:54;31.10;11.40
578;DHT22;275;48.492;9.214;2023-05-29T11:01:22;31.90;11.00
578;DHT22;275;48.492;9.214;2023-05-29T11:03:51;32.70;10.20
578;DHT22;275;48.492;9.214;2023-05-29T11:06:20;33.60;9.30
578;DHT22;275;48.492;9.214;2023-05-29T11:08:53;32.70;9.80
578;DHT22;275;48.492;9.214;2023-05-29T11:11:29;35.00;8.30
578;DHT22;275;48.492;9.214;2023-05-29T11:14:00;36.50;6.60
578;DHT22;275;48.492;9.214;2023-05-29T11:16:36;35.10;7.20
578;DHT22;275;48.492;9.214;2023-05-29T11:19:06;33.90;8.10
578;DHT22;275;48.492;9.214;2023-05-29T11:21:46;34.60;7.30
578;DHT22;275;48.492;9.214;2023-05-29T11:24:21;36.30;6.20
578;DHT22;275;48.492;9.214;2023-05-29T11:26:51;33.90;7.80
578;DHT22;275;48.492;9.214;2023-05-29T11:29:21;34.30;7.80
578;DHT22;275;48.492;9.214;2023-05-29T11:31:52;34.40;7.10
578;DHT22;275;48.492;9.214;2023-05-29T11:34:23;32.40;8.60
578;DHT22;275;48.492;9.214;2023-05-29T11:36:52;32.40;8.80
578;DHT22;275;48.492;9.214;2023-05-29T11:39:19;32.30;8.70
578;DHT22;275;48.492;9.214;2023-05-29T11:41:50;33.90;7.90
578;DHT22;275;48.492;9.214;2023-05-29T11:44:17;34.50;7.20
578;DHT22;275;48.492;9.214;2023-05-29T11:46:44;36.00;5.90
578;DHT22;275;48.492;9.214;2023-05-29T11:49:11;33.90;6.80
578;DHT22;275;48.492;9.214;2023-05-29T11:51:41;33.90;7.70
578;DHT22;275;48.492;9.214;2023-05-29T11:54:10;34.30;7.10
578;DHT22;275;48.492;9.214;2023-05-29T11:56:38;32.80;8.30
578;DHT22;275;48.492;9.214;2023-05-29T11:59:11;34.40;7.00
578;DHT22;275;48.492;9.214;2023-05-29T12:01:38;34.30;6.70
578;DHT22;275;48.492;9.214;2023-05-29T12:04:14;34.30;6.90
578;DHT22;275;48.492;9.214;2023-05-29T12:06:42;34.00;6.80
578;DHT22;275;48.492;9.214;2023-05-29T12:09:22;33.30;6.60
578;DHT22;275;48.492;9.214;2023-05-29T12:11:50;34.30;5.70
578;DHT22;275;48.492;9.214;2023-05-29T12:14:17;33.70;6.00
578;DHT22;275;48.492;9.214;2023-05-29T12:16:43;35.50;5.00
578;DHT22;275;48.492;9.214;2023-05-29T12:19:10;34.50;4.50
578;DHT22;275;48.492;9.214;2023-05-29T12:21:42;32.70;5.20
578;DHT22;275;48.492;9.214;2023-05-29T12:24:09;32.30;5.00
578;DHT22;275;48.492;9.214;2023-05-29T12:26:36;32.40;5.90
578;DHT22;275;48.492;9.214;2023-05-29T12:29:06;33.10;4.70
578;DHT22;275;48.492;9.214;2023-05-29T12:31:33;33.30;3.70
578;DHT22;275;48.492;9.214;2023-05-29T12:34:01;32.20;4.60
578;DHT22;275;48.492;9.214;2023-05-29T12:36:28;31.40;4.30
578;DHT22;275;48.492;9.214;2023-05-29T12:38:57;31.40;4.30
578;DHT22;275;48.492;9.214;2023-05-29T12:41:25;31.10;4.90
578;DHT22;275;48.492;9.214;2023-05-29T12:43:54;30.90;5.50
578;DHT22;275;48.492;9.214;2023-05-29T12:46:22;29.30;6.60
578;DHT22;275;48.492;9.214;2023-05-29T12:48:49;28.60;7.40
578;DHT22;275;48.492;9.214;2023-05-29T12:51:22;29.30;6.70
578;DHT22;275;48.492;9.214;2023-05-29T12:53:48;29.10;6.40
578;DHT22;275;48.492;9.214;2023-05-29T12:56:17;28.30;7.90
578;DHT22;275;48.492;9.214;2023-05-29T12:58:43;27.80;7.30
578;DHT22;275;48.492;9.214;2023-05-29T13:01:12;27.60;7.80
578;DHT22;275;48.492;9.214;2023-05-29T13:03:40;26.90;7.80
578;DHT22;275;48.492;9.214;2023-05-29T13:06:07;27.20;8.70
578;DHT22;275;48.492;9.214;2023-05-29T13:08:34;27.40;8.70
578;DHT22;275;48.492;9.214;2023-05-29T13:11:01;27.30;8.10
578;DHT22;275;48.492;9.214;2023-05-29T13:13:29;27.20;8.10
578;DHT22;275;48.492;9.214;2023-05-29T13:15:56;27.30;7.90
578;DHT22;275;48.492;9.214;2023-05-29T13:18:23;27.10;8.50
578;DHT22;275;48.492;9.214;2023-05-29T13:20:50;27.10;9.70
578;DHT22;275;48.492;9.214;2023-05-29T13:23:16;26.80;10.40
578;DHT22;275;48.492;9.214;2023-05-29T13:25:43;26.40;10.60
578;DHT22;275;48.492;9.214;2023-05-29T13:28:11;26.40;10.30
578;DHT22;275;48.492;9.214;2023-05-29T13:30:39;26.60;10.50
578;DHT22;275;48.492;9.214;2023-05-29T13:33:06;26.60;10.50
578;DHT22;275;48.492;9.214;2023-05-29T13:35:33;26.90;9.90
578;DHT22;275;48.492;9.214;2023-05-29T13:37:59;26.60;10.70
578;DHT22;275;48.492;9.214;2023-05-29T13:40:26;26.60;10.90
578;DHT22;275;48.492;9.214;2023-05-29T13:42:53;25.90;11.80
578;DHT22;275;48.492;9.214;2023-05-29T13:45:20;26.30;11.20
578;DHT22;275;48.492;9.214;2023-05-29T13:47:51;26.50;10.80
578;DHT22;275;48.492;9.214;2023-05-29T13:50:17;26.10;10.90
578;DHT22;275;48.492;9.214;2023-05-29T13:52:44;26.10;10.50
578;DHT22;275;48.492;9.214;2023-05-29T13:55:11;26.40;9.60
578;DHT22;275;48.492;9.214;2023-05-29T13:57:38;26.40;9.40
578;DHT22;275;48.492;9.214;2023-05-29T14:00:06;26.90;8.80
578;DHT22;275;48.492;9.214;2023-05-29T14:02:33;26.20;11.00
578;DHT22;275;48.492;9.214;2023-05-29T14:05:01;25.80;11.00
578;DHT22;275;48.492;9.214;2023-05-29T14:07:28;26.10;11.20
578;DHT22;275;48.492;9.214;2023-05-29T14:09:55;26.30;11.10
578;DHT22;275;48.492;9.214;2023-05-29T14:12:21;26.50;11.20
578;DHT22;275;48.492;9.214;2023-05-29T14:14:48;25.80;11.30
578;DHT22;275;48.492;9.214;2023-05-29T14:17:15;25.80;11.40
578;DHT22;275;48.492;9.214;2023-05-29T14:19:42;26.70;10.30
578;DHT22;275;48.492;9.214;2023-05-29T14:22:12;27.40;10.00
578;DHT22;275;48.492;9.214;2023-05-29T14:24:39;26.40;11.00
578;DHT22;275;48.492;9.214;2023-05-29T14:27:06;26.40;10.40
578;DHT22;275;48.492;9.214;2023-05-29T14:29:33;26.00;11.10
578;DHT22;275;48.492;9.214;2023-05-29T14:32:00;26.70;10.40
578;DHT22;275;48.492;9.214;2023-05-29T14:34:26;26.40;11.40
578;DHT22;275;48.492;9.214;2023-05-29T14:36:53;26.10;11.40
578;DHT22;275;48.492;9.214;2023-05-29T14:39:56;26.30;11.10
578;DHT22;275;48.492;9.214;2023-05-29T14:42:23;26.10;11.40
578;DHT22;275;48.492;9.214;2023-05-29T14:44:49;26.20;10.90
578;DHT22;275;48.492;9.214;2023-05-29T14:47:16;26.20;11.10
578;DHT22;275;48.492;9.214;2023-05-29T14:49:44;26.10;11.20
578;DHT22;275;48.492;9.214;2023-05-29T14:52:10;25.80;11.70
578;DHT22;275;48.492;9.214;2023-05-29T14:54:37;26.40;11.50
578;DHT22;275;48.492;9.214;2023-05-29T14:57:06;26.80;10.50
578;DHT22;275;48.492;9.214;2023-05-29T14:59:32;26.40;11.30
578;DHT22;275;48.492;9.214;2023-05-29T15:01:59;26.30;11.40
578;DHT22;275;48.492;9.214;2023-05-29T15:04:26;26.10;11.50
578;DHT22;275;48.492;9.214;2023-05-29T15:06:53;25.80;11.90
578;DHT22;275;48.492;9.214;2023-05-29T15:09:21;26.10;11.30
578;DHT22;275;48.492;9.214;2023-05-29T15:11:48;26.40;11.10
578;DHT22;275;48.492;9.214;2023-05-29T15:14:16;26.20;11.60
578;DHT22;275;48.492;9.214;2023-05-29T15:16:44;26.40;12.00
578;DHT22;275;48.492;9.214;2023-05-29T15:19:11;26.00;11.60
578;DHT22;275;48.492;9.214;2023-05-29T15:21:38;26.20;12.00
578;DHT22;275;48.492;9.214;2023-05-29T15:24:05;26.30;11.40
578;DHT22;275;48.492;9.214;2023-05-29T15:26:33;26.50;11.40
578;DHT22;275;48.492;9.214;2023-05-29T15:29:00;26.40;11.00
578;DHT22;275;48.492;9.214;2023-05-29T15:31:28;26.40;11.10
578;DHT22;275;48.492;9.214;2023-05-29T15:33:55;26.60;10.90
578;DHT22;275;48.492;9.214;2023-05-29T15:36:22;27.30;10.70
578;DHT22;275;48.492;9.214;2023-05-29T15:38:49;27.40;10.10
578;DHT22;275;48.492;9.214;2023-05-29T15:41:16;26.60;10.90
578;DHT22;275;48.492;9.214;2023-05-29T15:43:42;26.40;11.60
578;DHT22;275;48.492;9.214;2023-05-29T15:46:09;26.60;10.20
578;DHT22;275;48.492;9.214;2023-05-29T15:48:37;26.90;9.80
578;DHT22;275;48.492;9.214;2023-05-29T15:51:04;27.00;9.80
578;DHT22;275;48.492;9.214;2023-05-29T15:53:31;27.10;10.00
578;DHT22;275;48.492;9.214;2023-05-29T15:55:58;27.80;9.40
578;DHT22;275;48.492;9.214;2023-05-29T15:58:25;27.10;9.70
578;DHT22;275;48.492;9.214;2023-05-29T16:00:52;26.40;10.40
578;DHT22;275;48.492;9.214;2023-05-29T16:03:29;26.50;10.20
578;DHT22;275;48.492;9.214;2023-05-29T16:05:57;26.10;10.10
578;DHT22;275;48.492;9.214;2023-05-29T16:08:24;26.10;10.10
578;DHT22;275;48.492;9.214;2023-05-29T16:10:51;26.80;9.30
578;DHT22;275;48.492;9.214;2023-05-29T16:13:18;26.90;8.80
578;DHT22;275;48.492;9.214;2023-05-29T16:15:45;26.70;8.90
578;DHT22;275;48.492;9.214;2023-05-29T16:18:13;27.00;8.50
578;DHT22;275;48.492;9.214;2023-05-29T16:20:40;26.70;8.60
578;DHT22;275;48.492;9.214;2023-05-29T16:23:08;26.60;8.80
578;DHT22;275;48.492;9.214;2023-05-29T16:25:35;26.50;8.90
578;DHT22;275;48.492;9.214;2023-05-29T16:28:02;26.20;9.30
578;DHT22;275;48.492;9.214;2023-05-29T16:30:29;26.20;9.30
578;DHT22;275;48.492;9.214;2023-05-29T16:32:56;26.40;9.40
578;DHT22;275;48.492;9.214;2023-05-29T16:35:23;26.30;9.50
578;DHT22;275;48.492;9.214;2023-05-29T16:37:49;26.40;9.20
578;DHT22;275;48.492;9.214;2023-05-29T16:40:19;26.60;8.70
578;DHT22;275;48.492;9.214;2023-05-29T16:42:48;26.40;8.70
578;DHT22;275;48.492;9.214;2023-05-29T16:45:16;25.80;9.50